Time;durP1;ratioP1;P1;durP2;ratioP2;P2;SDS_P1;SDS_P2;PMS_P1;PMS_P2;Temp;Humidity;BMP_temperature;BMP_pressure;BME280_temperature;BME280_humidity;BME280_pressure;Samples;Min_cycle;Max_cycle;Signal;HPM_P1;HPM_P2
2021/10/13 00:01:37;;;;;;;7.53;1.90;;;;;;;5.40;97.94;100946.75;5016681;28;20409;-85
2021/10/13 00:04:05;;;;;;;4.03;1.38;;;;;;;5.41;96.91;100947.63;5009184;28;20140;-85
2021/10/13 00:06:33;;;;;;;8.23;2.03;;;;;;;5.13;97.25;100950.25;5033816;28;20056;-79
2021/10/13 00:09:00;;;;;;;2.40;1.50;;;;;;;5.16;97.82;100947.56;4979086;28;20045;-84
2021/10/13 00:11:28;;;;;;;3.70;1.88;;;;;;;5.15;97.75;100951.91;4995775;28;20140;-82
2021/10/13 00:13:55;;;;;;;3.05;1.77;;;;;;;5.05;98.46;100946.13;5011939;28;20055;-82
2021/10/13 00:16:26;;;;;;;9.18;2.17;;;;;;;5.23;98.03;100951.69;5014721;28;20132;-87
2021/10/13 00:18:53;;;;;;;5.55;1.70;;;;;;;5.16;97.70;100951.00;4997226;28;20046;-81
2021/10/13 00:21:21;;;;;;;10.50;2.10;;;;;;;4.96;98.81;100954.25;5008255;28;20120;-82
2021/10/13 00:23:49;;;;;;;5.15;2.13;;;;;;;4.94;99.38;100947.34;5014224;28;20045;-80
2021/10/13 00:26:16;;;;;;;11.35;2.22;;;;;;;4.97;99.28;100962.94;5020476;28;20049;-80
2021/10/13 00:28:44;;;;;;;9.48;2.53;;;;;;;5.06;99.62;100962.66;4997736;28;20049;-77
2021/10/13 00:31:11;;;;;;;4.60;1.77;;;;;;;5.08;99.33;100956.47;4985948;28;20400;-79
2021/10/13 00:33:39;;;;;;;5.63;1.80;;;;;;;5.11;99.21;100957.28;5013264;28;20148;-81
2021/10/13 00:36:06;;;;;;;5.00;1.40;;;;;;;5.08;98.80;100964.28;5022570;28;20140;-78
2021/10/13 00:38:33;;;;;;;2.75;1.33;;;;;;;5.07;98.72;100959.97;5012507;28;20049;-83
2021/10/13 00:41:01;;;;;;;2.60;1.40;;;;;;;4.97;99.49;100962.94;5013142;28;20057;-82
2021/10/13 00:43:28;;;;;;;4.00;1.50;;;;;;;4.97;100.00;100958.56;5002723;28;20048;-82
2021/10/13 00:45:56;;;;;;;8.20;1.77;;;;;;;5.08;99.15;100956.47;4999398;28;20051;-78
2021/10/13 00:48:26;;;;;;;3.33;1.42;;;;;;;4.98;99.11;100957.66;5024947;28;20053;-80
2021/10/13 00:50:54;;;;;;;4.30;1.67;;;;;;;5.00;99.33;100955.88;4996462;28;20057;-84
2021/10/13 00:53:22;;;;;;;4.40;2.08;;;;;;;5.05;99.84;100956.56;4995297;28;20595;-81
2021/10/13 00:55:52;;;;;;;3.92;1.58;;;;;;;5.18;100.00;100964.00;4997525;28;20120;-82
2021/10/13 00:58:19;;;;;;;5.38;1.50;;;;;;;5.13;99.53;100960.69;5013404;28;20064;-83
2021/10/13 01:00:48;;;;;;;4.43;1.20;;;;;;;5.08;99.52;100964.28;5011041;28;20384;-82
2021/10/13 01:03:30;;;;;;;4.45;1.42;;;;;;;5.02;99.80;100964.50;4986802;28;20072;-84
2021/10/13 01:06:19;;;;;;;3.08;1.33;;;;;;;5.04;99.95;100967.03;5010710;28;20045;-83
2021/10/13 01:08:59;;;;;;;2.65;1.48;;;;;;;4.90;100.00;100971.81;4995097;28;20084;-78
2021/10/13 01:11:56;;;;;;;3.20;1.48;;;;;;;4.88;100.00;100974.50;4987613;28;20049;-80
2021/10/13 01:14:40;;;;;;;3.33;1.42;;;;;;;4.91;100.00;100970.91;5011383;28;20052;-80
2021/10/13 01:17:33;;;;;;;4.20;1.55;;;;;;;4.97;100.00;100979.44;4998207;28;20046;-79
2021/10/13 01:20:15;;;;;;;10.38;1.33;;;;;;;4.73;100.00;100967.97;4953844;28;20049;-83
2021/10/13 01:22:53;;;;;;;9.27;1.95;;;;;;;4.71;100.00;100974.97;5008068;28;20144;-76
2021/10/13 01:25:52;;;;;;;2.65;1.23;;;;;;;4.72;100.00;100979.28;5028418;28;20131;-81
2021/10/13 01:28:22;;;;;;;6.07;1.20;;;;;;;4.79;100.00;100985.19;4981281;28;20057;-82
2021/10/13 01:30:58;;;;;;;3.75;1.42;;;;;;;4.70;100.00;100980.25;4994156;28;20492;-82
2021/10/13 01:33:28;;;;;;;3.08;1.48;;;;;;;4.73;100.00;100993.22;4995695;28;20042;-79
2021/10/13 01:36:00;;;;;;;3.65;1.65;;;;;;;4.67;100.00;100989.00;4995851;28;20071;-80
2021/10/13 01:38:28;;;;;;;6.47;1.58;;;;;;;4.61;100.00;100990.94;4978307;28;20079;-78
2021/10/13 01:40:59;;;;;;;3.63;1.20;;;;;;;4.73;100.00;100993.22;4977681;28;20053;-82
2021/10/13 01:43:28;;;;;;;3.20;1.35;;;;;;;4.88;100.00;100999.72;4994192;28;20144;-84
2021/10/13 01:45:56;;;;;;;5.65;1.40;;;;;;;4.93;100.00;100995.22;5014034;28;20111;-80
2021/10/13 01:48:23;;;;;;;5.13;1.50;;;;;;;4.81;100.00;100999.03;5009513;28;20095;-81
2021/10/13 01:50:52;;;;;;;4.07;1.30;;;;;;;4.67;100.00;101007.25;4993753;28;20041;-84
2021/10/13 01:53:21;;;;;;;3.97;1.30;;;;;;;4.70;100.00;101004.56;5018105;28;20726;-80
2021/10/13 01:55:51;;;;;;;3.30;1.00;;;;;;;4.67;100.00;101017.69;4989004;28;20561;-84
2021/10/13 01:58:18;;;;;;;3.22;1.42;;;;;;;4.58;100.00;101013.59;5011663;28;20455;-81
2021/10/13 02:00:47;;;;;;;5.78;1.25;;;;;;;4.51;100.00;101014.66;4997540;28;20045;-78
2021/10/13 02:03:22;;;;;;;4.10;1.10;;;;;;;4.39;100.00;101021.97;5011324;28;20142;-86
2021/10/13 02:05:51;;;;;;;5.68;1.17;;;;;;;4.50;100.00;101017.31;5010786;28;20476;-80
2021/10/13 02:08:20;;;;;;;4.22;1.17;;;;;;;4.53;100.00;101018.06;4976812;28;20041;-88
2021/10/13 02:10:48;;;;;;;3.78;1.58;;;;;;;4.36;100.00;101025.50;4994031;28;20053;-80
2021/10/13 02:13:19;;;;;;;5.63;1.70;;;;;;;4.44;100.00;101022.69;5024170;28;20171;-85
2021/10/13 02:15:48;;;;;;;8.63;1.63;;;;;;;4.45;100.00;101025.25;4994037;28;20418;-80
2021/10/13 02:18:24;;;;;;;3.17;1.20;;;;;;;4.32;100.00;101029.06;5010975;28;20033;-85
2021/10/13 02:20:52;;;;;;;1.48;1.05;;;;;;;4.32;100.00;101026.47;5000564;28;20091;-78
2021/10/13 02:23:21;;;;;;;5.40;1.30;;;;;;;4.38;100.00;101028.94;5017243;28;20132;-78
2021/10/13 02:25:50;;;;;;;2.53;1.40;;;;;;;4.42;100.00;101035.78;5009214;28;20037;-82
2021/10/13 02:28:32;;;;;;;2.60;1.35;;;;;;;4.28;100.00;101032.69;4994384;28;20145;-86
2021/10/13 02:30:59;;;;;;;3.03;1.15;;;;;;;4.26;100.00;101032.72;4984490;28;20063;-79
2021/10/13 02:33:27;;;;;;;6.07;1.38;;;;;;;4.24;100.00;101033.66;4989308;28;20060;-81
2021/10/13 02:35:54;;;;;;;4.35;1.48;;;;;;;4.19;100.00;101035.53;5003649;28;20388;-84
2021/10/13 02:38:21;;;;;;;4.50;1.50;;;;;;;4.31;100.00;101032.59;4993677;28;20063;-83
2021/10/13 02:40:48;;;;;;;3.63;1.20;;;;;;;4.25;100.00;101035.38;5000695;28;20452;-79
2021/10/13 02:43:16;;;;;;;4.72;1.40;;;;;;;4.16;100.00;101043.44;5027032;28;20063;-84
2021/10/13 02:45:50;;;;;;;7.78;1.77;;;;;;;4.22;100.00;101041.50;5011313;28;20121;-81
2021/10/13 02:48:21;;;;;;;5.78;1.63;;;;;;;4.10;100.00;101046.16;5002770;28;20046;-87
2021/10/13 02:51:07;;;;;;;5.88;1.48;;;;;;;4.07;100.00;101045.38;4998846;28;20064;-83
2021/10/13 02:54:14;;;;;;;5.55;1.60;;;;;;;3.99;100.00;101051.66;5009567;28;20063;-83
2021/10/13 02:56:45;;;;;;;2.38;1.23;;;;;;;4.03;100.00;101051.53;5012222;28;20049;-80
2021/10/13 02:59:18;;;;;;;14.55;1.60;;;;;;;3.97;100.00;101061.28;4990811;28;20049;-84
2021/10/13 03:01:48;;;;;;;3.00;1.35;;;;;;;3.96;100.00;101060.41;5004738;28;20065;-82
2021/10/13 03:04:21;;;;;;;7.97;1.80;;;;;;;4.05;100.00;101060.19;4997431;28;20072;-80
2021/10/13 03:06:53;;;;;;;5.35;1.40;;;;;;;4.12;100.00;101055.66;5008175;28;20165;-80
2021/10/13 03:09:21;;;;;;;7.40;1.73;;;;;;;4.16;100.00;101067.72;5008041;28;20080;-79
2021/10/13 03:11:50;;;;;;;3.55;1.42;;;;;;;4.09;100.00;101070.50;5012728;28;20132;-85
2021/10/13 03:14:22;;;;;;;5.85;1.60;;;;;;;4.06;100.00;101072.31;4992864;28;20432;-81
2021/10/13 03:16:54;;;;;;;3.22;1.30;;;;;;;3.99;100.00;101080.31;4997906;28;20124;-81
2021/10/13 03:19:22;;;;;;;3.35;1.33;;;;;;;4.05;100.00;101077.53;5010897;28;20129;-79
2021/10/13 03:21:50;;;;;;;2.45;1.45;;;;;;;4.02;100.00;101077.66;4991570;28;20604;-82
2021/10/13 03:24:18;;;;;;;7.40;2.63;;;;;;;4.16;100.00;101087.72;5010501;28;20124;-83
2021/10/13 03:26:50;;;;;;;6.18;1.50;;;;;;;4.15;100.00;101091.22;4994965;28;20072;-80
2021/10/13 03:29:17;;;;;;;3.38;1.58;;;;;;;4.12;100.00;101089.53;5015571;28;20049;-81
2021/10/13 03:31:45;;;;;;;3.30;1.20;;;;;;;4.11;100.00;101079.16;4993795;28;20140;-77
2021/10/13 03:34:15;;;;;;;4.75;2.15;;;;;;;4.15;100.00;101092.09;4990444;28;20042;-86
2021/10/13 03:36:45;;;;;;;7.15;2.22;;;;;;;4.16;100.00;101090.31;5018179;28;20132;-80
2021/10/13 03:39:12;;;;;;;5.43;1.52;;;;;;;4.19;100.00;101095.47;4980486;28;20113;-82
2021/10/13 03:41:40;;;;;;;9.02;1.85;;;;;;;4.22;100.00;101095.38;4986435;28;20295;-81
2021/10/13 03:44:08;;;;;;;3.33;1.65;;;;;;;4.23;100.00;101105.78;5016918;28;20751;-82
2021/10/13 03:46:37;;;;;;;2.40;1.48;;;;;;;4.21;100.00;101106.69;5033933;28;20047;-84
2021/10/13 03:49:04;;;;;;;3.28;1.60;;;;;;;4.09;100.00;101099.19;5018672;28;20100;-84
2021/10/13 03:51:32;;;;;;;5.88;1.75;;;;;;;4.23;100.00;101107.50;5019738;28;20057;-79
2021/10/13 03:53:59;;;;;;;4.95;1.83;;;;;;;4.22;100.00;101108.41;5002545;28;20144;-86
2021/10/13 03:56:29;;;;;;;6.38;2.00;;;;;;;4.12;100.00;101101.72;4997575;28;20102;-84
2021/10/13 03:58:57;;;;;;;2.05;1.50;;;;;;;4.07;100.00;101107.91;5007897;28;20052;-84
2021/10/13 04:01:25;;;;;;;5.93;2.47;;;;;;;4.01;100.00;101105.44;5007315;28;20056;-84
2021/10/13 04:03:52;;;;;;;5.78;2.15;;;;;;;3.95;100.00;101109.94;5008850;28;20085;-82
2021/10/13 04:06:20;;;;;;;3.53;1.92;;;;;;;4.05;100.00;101106.19;5023728;28;20029;-81
2021/10/13 04:08:47;;;;;;;5.78;2.72;;;;;;;4.15;100.00;101114.69;5007411;28;20109;-82
2021/10/13 04:11:14;;;;;;;5.63;1.98;;;;;;;4.08;100.00;101111.34;5045120;28;20067;-86
2021/10/13 04:13:41;;;;;;;4.18;1.77;;;;;;;4.25;100.00;101118.75;5027844;28;20080;-81
2021/10/13 04:16:08;;;;;;;6.68;2.10;;;;;;;4.38;100.00;101122.78;5003664;28;20166;-79
2021/10/13 04:18:36;;;;;;;5.90;2.55;;;;;;;4.52;100.00;101128.50;5005078;28;20282;-81
2021/10/13 04:21:03;;;;;;;3.17;2.13;;;;;;;4.60;100.00;101119.63;5040996;28;20213;-80
2021/10/13 04:23:30;;;;;;;5.05;1.83;;;;;;;4.62;100.00;101125.63;5028554;28;20718;-85
2021/10/13 04:25:57;;;;;;;9.32;2.17;;;;;;;4.58;100.00;101133.53;4995263;28;20141;-82
2021/10/13 04:28:24;;;;;;;6.25;2.10;;;;;;;4.62;100.00;101129.09;5034409;28;20085;-86
2021/10/13 04:30:51;;;;;;;4.53;1.88;;;;;;;4.88;100.00;101132.78;5040960;28;20073;-87
2021/10/13 04:33:19;;;;;;;3.80;1.90;;;;;;;4.91;100.00;101124.84;5020221;28;20079;-83
2021/10/13 04:35:46;;;;;;;4.50;1.80;;;;;;;4.89;100.00;101124.91;5031816;28;20078;-80
2021/10/13 04:38:13;;;;;;;6.05;2.60;;;;;;;4.83;100.00;101127.69;5046305;28;20109;-81
2021/10/13 04:40:41;;;;;;;6.90;2.83;;;;;;;4.87;100.00;101129.31;5038055;28;20049;-81
2021/10/13 04:43:09;;;;;;;5.28;2.08;;;;;;;4.95;100.00;101127.31;5013128;28;20064;-81
2021/10/13 04:45:36;;;;;;;6.75;1.98;;;;;;;4.85;100.00;101130.22;4997773;28;20539;-83
2021/10/13 04:48:03;;;;;;;5.35;2.03;;;;;;;4.91;100.00;101130.06;5000371;28;20103;-86
2021/10/13 04:50:30;;;;;;;4.10;2.75;;;;;;;4.99;100.00;101133.31;4995120;28;20148;-82
2021/10/13 04:53:01;;;;;;;4.32;2.55;;;;;;;4.96;100.00;101136.88;4972749;28;20405;-84
2021/10/13 04:55:28;;;;;;;9.63;2.58;;;;;;;4.98;100.00;101132.47;4978938;28;20132;-80
2021/10/13 04:57:55;;;;;;;5.10;3.35;;;;;;;4.95;100.00;101135.16;4995284;28;20072;-83
2021/10/13 05:00:22;;;;;;;5.18;2.90;;;;;;;4.92;100.00;101137.88;4993528;28;20477;-83
2021/10/13 05:02:50;;;;;;;6.13;2.60;;;;;;;4.81;100.00;101138.13;5001132;28;20056;-82
2021/10/13 05:05:17;;;;;;;4.13;2.10;;;;;;;4.95;100.00;101140.38;5010503;28;20116;-86
2021/10/13 05:07:45;;;;;;;5.72;2.75;;;;;;;5.01;100.00;101144.59;4997017;28;20045;-81
2021/10/13 05:10:13;;;;;;;5.13;2.35;;;;;;;5.18;100.00;101141.47;5004256;28;20046;-79
2021/10/13 05:12:40;;;;;;;3.33;2.30;;;;;;;5.19;100.00;101140.59;5014406;28;20068;-80
2021/10/13 05:15:07;;;;;;;7.22;2.70;;;;;;;5.07;100.00;101140.03;5010217;28;20493;-83
2021/10/13 05:17:34;;;;;;;7.47;2.85;;;;;;;5.13;100.00;101136.38;4998939;28;20052;-79
2021/10/13 05:20:02;;;;;;;6.30;2.83;;;;;;;4.87;100.00;101141.50;5001582;28;20055;-81
2021/10/13 05:22:29;;;;;;;4.75;2.42;;;;;;;4.67;100.00;101142.88;4997612;28;20050;-82
2021/10/13 05:24:57;;;;;;;9.05;2.67;;;;;;;4.72;100.00;101142.75;4993834;28;20054;-83
2021/10/13 05:27:24;;;;;;;7.25;2.85;;;;;;;4.60;100.00;101149.16;5003640;28;20046;-80
2021/10/13 05:29:51;;;;;;;6.95;3.08;;;;;;;4.65;100.00;101143.81;4999031;28;20052;-82
2021/10/13 05:32:19;;;;;;;7.57;3.83;;;;;;;4.64;100.00;101157.72;4986226;28;20041;-82
2021/10/13 05:34:47;;;;;;;7.03;3.72;;;;;;;4.64;100.00;101155.13;5013625;28;20449;-79
2021/10/13 05:37:14;;;;;;;8.15;3.80;;;;;;;4.67;100.00;101163.72;5004638;28;20121;-78
2021/10/13 05:39:41;;;;;;;8.95;4.70;;;;;;;4.69;100.00;101164.56;5035420;28;20087;-84
2021/10/13 05:42:08;;;;;;;8.85;4.50;;;;;;;4.76;100.00;101171.31;5012975;28;20057;-79
2021/10/13 05:44:35;;;;;;;10.18;4.65;;;;;;;4.59;100.00;101168.28;4993061;28;20053;-84
2021/10/13 05:47:02;;;;;;;13.20;5.45;;;;;;;4.76;100.00;101173.06;4995421;28;20045;-80
2021/10/13 05:49:30;;;;;;;14.70;5.07;;;;;;;4.88;100.00;101182.34;5006249;28;20183;-81
2021/10/13 05:51:57;;;;;;;14.65;5.60;;;;;;;4.99;100.00;101185.50;5029187;28;20061;-80
2021/10/13 05:54:24;;;;;;;11.93;6.20;;;;;;;5.14;100.00;101184.25;5011873;28;20101;-83
2021/10/13 05:56:52;;;;;;;15.15;4.80;;;;;;;5.25;100.00;101193.47;4982423;28;20147;-81
2021/10/13 05:59:19;;;;;;;13.88;6.03;;;;;;;5.18;100.00;101197.19;4977625;28;20056;-80
2021/10/13 06:01:46;;;;;;;11.93;5.82;;;;;;;5.33;100.00;101201.09;5012922;28;20065;-81
2021/10/13 06:04:14;;;;;;;11.48;5.80;;;;;;;5.36;100.00;101202.75;5009625;28;20357;-82
2021/10/13 06:06:42;;;;;;;11.88;5.85;;;;;;;5.54;100.00;101205.72;5002668;28;20045;-80
2021/10/13 06:09:09;;;;;;;16.58;6.40;;;;;;;5.49;100.00;101211.97;5010623;28;20233;-84
2021/10/13 06:11:36;;;;;;;7.75;5.68;;;;;;;5.74;100.00;101212.97;5005451;28;20120;-77
2021/10/13 06:14:03;;;;;;;15.90;6.35;;;;;;;5.80;100.00;101215.38;4999695;28;20067;-87
2021/10/13 06:16:31;;;;;;;12.23;6.10;;;;;;;6.26;98.79;101210.53;5001491;28;20095;-81
2021/10/13 06:18:58;;;;;;;10.88;5.53;;;;;;;5.85;97.51;101228.31;4986617;28;20124;-83
2021/10/13 06:21:26;;;;;;;8.10;5.18;;;;;;;6.33;96.87;101222.53;5012704;28;20032;-82
2021/10/13 06:23:53;;;;;;;10.55;5.25;;;;;;;6.42;95.88;101222.22;5002724;28;20053;-83
2021/10/13 06:26:21;;;;;;;8.88;5.20;;;;;;;6.50;94.76;101217.63;5015926;28;20187;-79
2021/10/13 06:28:49;;;;;;;12.73;5.93;;;;;;;6.65;92.85;101225.88;5015816;28;20056;-83
2021/10/13 06:31:16;;;;;;;11.95;5.72;;;;;;;6.28;95.29;101225.28;5006006;28;20056;-79
2021/10/13 06:33:44;;;;;;;16.77;5.60;;;;;;;6.51;94.49;101235.00;4994630;28;20128;-81
2021/10/13 06:36:11;;;;;;;12.13;5.05;;;;;;;6.56;93.66;101229.63;4995351;28;20404;-79
2021/10/13 06:38:38;;;;;;;12.57;5.20;;;;;;;6.65;92.85;101231.09;4997559;28;20133;-79
2021/10/13 06:41:09;;;;;;;10.68;5.65;;;;;;;6.70;92.03;101235.25;4993825;28;20149;-79
2021/10/13 06:43:37;;;;;;;10.05;5.80;;;;;;;6.57;92.87;101234.84;4993461;28;20655;-82
2021/10/13 06:46:04;;;;;;;12.40;5.90;;;;;;;6.56;93.19;101234.88;5016055;28;20075;-80
2021/10/13 06:48:32;;;;;;;16.23;6.18;;;;;;;6.64;92.29;101235.47;5014928;28;20054;-81
2021/10/13 06:50:59;;;;;;;13.98;7.07;;;;;;;6.74;91.68;101238.63;4997678;28;20137;-84
2021/10/13 06:53:27;;;;;;;19.75;6.53;;;;;;;6.79;91.48;101247.19;4982693;28;20064;-81
2021/10/13 06:55:57;;;;;;;12.52;6.22;;;;;;;7.07;90.47;101241.91;5008454;28;20049;-83
2021/10/13 06:58:24;;;;;;;11.93;6.40;;;;;;;6.99;89.24;101243.91;4996081;28;20041;-79
2021/10/13 07:00:52;;;;;;;14.18;6.20;;;;;;;7.07;89.95;101253.22;4988690;28;20135;-83
2021/10/13 07:03:19;;;;;;;11.13;6.90;;;;;;;6.95;90.69;101248.41;5021446;28;20159;-84
2021/10/13 07:05:46;;;;;;;14.80;6.38;;;;;;;6.75;91.05;101253.44;5004776;28;20033;-83
2021/10/13 07:08:14;;;;;;;14.32;6.22;;;;;;;6.89;91.60;101251.22;4983574;28;20171;-85
2021/10/13 07:10:41;;;;;;;27.55;7.10;;;;;;;6.97;90.70;101256.19;5018132;28;20140;-83
2021/10/13 07:13:08;;;;;;;13.63;6.10;;;;;;;7.15;90.00;101259.94;5013457;28;20053;-87
2021/10/13 07:15:36;;;;;;;13.40;6.25;;;;;;;7.20;89.72;101255.41;4995701;28;20203;-80
2021/10/13 07:18:03;;;;;;;12.48;6.93;;;;;;;7.24;89.61;101257.00;5044082;28;20051;-81
2021/10/13 07:20:31;;;;;;;15.05;6.22;;;;;;;7.31;89.33;101248.03;5017528;28;20083;-83
2021/10/13 07:22:58;;;;;;;13.57;6.20;;;;;;;7.34;88.83;101261.03;5005460;28;20140;-81
2021/10/13 07:25:27;;;;;;;14.43;7.72;;;;;;;7.51;88.43;101258.63;5020816;28;20040;-81
2021/10/13 07:27:58;;;;;;;17.10;6.72;;;;;;;7.53;86.98;101262.06;5004668;28;20069;-82
2021/10/13 07:30:25;;;;;;;17.92;7.05;;;;;;;7.18;89.29;101265.94;5016333;28;20128;-88
2021/10/13 07:32:53;;;;;;;14.82;6.93;;;;;;;7.29;89.57;101266.41;5002899;28;20160;-84
2021/10/13 07:35:21;;;;;;;23.70;7.30;;;;;;;7.50;88.36;101277.91;5016178;28;20042;-82
2021/10/13 07:37:50;;;;;;;18.27;7.40;;;;;;;7.34;89.33;101279.38;5018304;28;20462;-83
2021/10/13 07:40:17;;;;;;;12.75;7.35;;;;;;;7.54;88.19;101282.13;4995465;28;20052;-82
2021/10/13 07:42:46;;;;;;;21.50;6.40;;;;;;;7.66;88.22;101285.22;5003433;28;20041;-84
2021/10/13 07:45:18;;;;;;;20.90;6.43;;;;;;;7.32;89.73;101286.41;5000854;28;20060;-80
2021/10/13 07:47:46;;;;;;;10.05;6.93;;;;;;;7.41;89.35;101283.47;5008934;28;20145;-84
2021/10/13 07:50:14;;;;;;;11.45;5.50;;;;;;;7.30;89.76;101290.84;5020594;28;20053;-80
2021/10/13 07:52:49;;;;;;;13.02;6.10;;;;;;;7.47;88.97;101290.25;5026978;28;20037;-82
2021/10/13 07:55:16;;;;;;;12.02;5.95;;;;;;;7.34;90.33;101298.56;5004272;28;20515;-82
2021/10/13 07:57:43;;;;;;;16.20;7.07;;;;;;;7.39;90.11;101294.91;5006190;28;20426;-82
2021/10/13 08:00:12;;;;;;;11.93;6.03;;;;;;;7.73;88.41;101289.31;5035263;28;20037;-84
2021/10/13 08:02:44;;;;;;;10.23;6.22;;;;;;;7.59;89.24;101290.66;5022208;28;20069;-80
2021/10/13 08:05:16;;;;;;;9.20;5.75;;;;;;;7.81;87.29;101288.13;5014920;28;20060;-83
2021/10/13 08:07:44;;;;;;;7.72;4.80;;;;;;;7.50;89.43;101291.00;4985125;28;20069;-79
2021/10/13 08:10:13;;;;;;;8.55;5.47;;;;;;;8.98;84.11;101283.59;4998563;28;20236;-84
2021/10/13 08:12:40;;;;;;;10.00;4.95;;;;;;;12.45;67.39;101285.06;5005090;28;20140;-82
2021/10/13 08:15:08;;;;;;;10.13;4.75;;;;;;;13.72;62.08;101285.53;5028983;28;20045;-84
2021/10/13 08:17:35;;;;;;;7.13;4.18;;;;;;;16.26;52.18;101279.19;5004205;28;20092;-83
2021/10/13 08:20:05;;;;;;;8.63;4.45;;;;;;;15.05;54.33;101269.03;5015113;28;20136;-85
2021/10/13 08:22:32;;;;;;;6.22;3.88;;;;;;;15.88;51.25;101281.91;5009151;28;20419;-79
2021/10/13 08:25:00;;;;;;;8.30;4.32;;;;;;;14.06;55.31;101289.59;5018390;28;20125;-80
2021/10/13 08:27:27;;;;;;;8.75;4.47;;;;;;;14.13;55.81;101285.56;5021883;28;20120;-82
2021/10/13 08:29:54;;;;;;;5.63;4.00;;;;;;;15.93;50.98;101285.91;5016895;28;20144;-80
2021/10/13 08:32:21;;;;;;;8.48;4.65;;;;;;;17.50;46.71;101293.81;4983892;28;20053;-83
2021/10/13 08:34:48;;;;;;;11.02;4.65;;;;;;;17.94;45.27;101298.38;5001808;28;20077;-83
2021/10/13 08:37:16;;;;;;;6.93;4.45;;;;;;;19.38;41.67;101294.53;5016706;28;20057;-81
2021/10/13 08:39:43;;;;;;;10.30;4.90;;;;;;;18.63;42.58;101311.47;4997292;28;20069;-86
2021/10/13 08:42:10;;;;;;;6.03;3.10;;;;;;;18.08;44.40;101315.09;4999846;28;20509;-84
2021/10/13 08:44:40;;;;;;;5.07;3.47;;;;;;;19.63;40.96;101311.16;5000111;28;20045;-84
2021/10/13 08:47:10;;;;;;;8.50;4.00;;;;;;;18.36;42.94;101313.72;4999324;28;20477;-83
2021/10/13 08:49:41;;;;;;;6.85;3.65;;;;;;;16.49;47.43;101313.88;5014688;28;20056;-83
2021/10/13 08:52:11;;;;;;;9.52;3.55;;;;;;;16.83;47.10;101312.25;4998007;28;20460;-83
2021/10/13 08:54:39;;;;;;;7.45;3.85;;;;;;;16.66;47.88;101314.31;5011734;28;20051;-81
2021/10/13 08:57:23;;;;;;;9.15;3.95;;;;;;;15.68;49.89;101325.78;5018673;28;20050;-82
2021/10/13 08:59:52;;;;;;;10.05;3.67;;;;;;;15.33;51.28;101321.03;5009890;28;20058;-84
2021/10/13 09:02:40;;;;;;;7.15;3.25;;;;;;;16.16;49.74;101318.81;4999083;28;20144;-79
2021/10/13 09:05:09;;;;;;;13.63;3.45;;;;;;;16.17;49.50;101315.22;4994620;28;20052;-81
2021/10/13 09:07:36;;;;;;;8.07;3.47;;;;;;;17.52;45.98;101310.53;5000550;28;20084;-81
2021/10/13 09:10:08;;;;;;;5.93;3.45;;;;;;;17.53;46.66;101325.53;4994687;28;20050;-79
2021/10/13 09:12:37;;;;;;;5.90;3.65;;;;;;;19.23;42.75;101315.38;5009311;28;20041;-83
2021/10/13 09:15:13;;;;;;;8.88;3.58;;;;;;;18.58;43.66;101319.00;5001935;28;20119;-80
2021/10/13 09:17:50;;;;;;;8.32;3.58;;;;;;;17.58;45.80;101318.03;4998799;28;20051;-82
2021/10/13 09:20:19;;;;;;;8.25;2.83;;;;;;;15.26;51.29;101318.91;4992686;28;20495;-81
2021/10/13 09:23:01;;;;;;;6.93;3.13;;;;;;;13.17;57.48;101321.41;5007732;28;20059;-81
2021/10/13 09:25:29;;;;;;;7.50;3.53;;;;;;;12.09;63.59;101330.16;4992730;28;20445;-80
2021/10/13 09:27:58;;;;;;;6.13;3.38;;;;;;;11.08;67.29;101330.13;5003768;28;20079;-82
2021/10/13 09:30:27;;;;;;;6.15;3.25;;;;;;;10.65;70.91;101333.06;5010760;28;20049;-82
2021/10/13 09:32:54;;;;;;;8.45;3.50;;;;;;;10.54;71.51;101334.50;4998612;28;20057;-82
2021/10/13 09:35:28;;;;;;;5.30;3.42;;;;;;;10.45;73.05;101329.69;4987599;28;20109;-82
2021/10/13 09:37:56;;;;;;;10.10;3.20;;;;;;;10.47;73.19;101331.28;4998295;28;20152;-81
2021/10/13 09:40:29;;;;;;;15.65;3.85;;;;;;;10.61;72.82;101336.75;4994401;28;20064;-80
2021/10/13 09:43:00;;;;;;;11.93;3.60;;;;;;;10.70;72.58;101342.50;4997386;28;20415;-81
2021/10/13 09:45:29;;;;;;;13.25;4.47;;;;;;;10.70;72.75;101339.88;4993503;28;20773;-82
2021/10/13 09:48:02;;;;;;;4.32;3.33;;;;;;;10.53;73.25;101343.31;5016012;28;20585;-80
2021/10/13 09:50:50;;;;;;;6.10;3.85;;;;;;;10.55;73.32;101344.97;4999549;28;20039;-83
2021/10/13 09:53:30;;;;;;;7.75;3.72;;;;;;;10.48;73.97;101338.25;5008941;28;20124;-88
2021/10/13 09:55:57;;;;;;;7.85;3.15;;;;;;;10.36;74.96;101346.75;4999939;28;20522;-83
2021/10/13 09:58:31;;;;;;;5.22;3.15;;;;;;;10.50;74.62;101348.75;4997097;28;20105;-80
2021/10/13 10:01:09;;;;;;;9.38;3.40;;;;;;;10.76;73.84;101348.34;5010966;28;20059;-79
2021/10/13 10:03:44;;;;;;;5.78;3.22;;;;;;;10.67;73.96;101340.03;5009958;28;20096;-81
2021/10/13 10:06:11;;;;;;;6.97;3.72;;;;;;;10.65;73.60;101351.47;5003584;28;20342;-81
2021/10/13 10:08:54;;;;;;;4.32;2.95;;;;;;;10.69;73.92;101346.94;5020741;28;20136;-81
2021/10/13 10:11:32;;;;;;;8.00;3.15;;;;;;;10.86;73.20;101349.59;5009357;28;20045;-82
2021/10/13 10:14:01;;;;;;;6.30;2.95;;;;;;;10.57;73.83;101358.88;5039865;28;20065;-81
2021/10/13 10:16:32;;;;;;;6.30;3.35;;;;;;;10.58;74.47;101355.34;4998554;28;20081;-83
2021/10/13 10:19:42;;;;;;;7.22;3.58;;;;;;;10.68;74.14;101347.00;4981620;28;20067;-87
2021/10/13 10:22:14;;;;;;;12.02;3.85;;;;;;;10.68;74.19;101347.88;4953713;28;20099;-85
2021/10/13 10:24:53;;;;;;;6.85;3.60;;;;;;;11.01;72.96;101344.50;5009110;28;20168;-87
2021/10/13 10:27:23;;;;;;;11.32;3.00;;;;;;;11.01;72.79;101340.09;4997229;28;20049;-83
2021/10/13 10:30:08;;;;;;;7.80;3.55;;;;;;;10.44;75.31;101357.75;5023554;28;20050;-82
2021/10/13 10:32:36;;;;;;;11.23;4.20;;;;;;;10.59;75.19;101353.56;4996772;28;20049;-80
2021/10/13 10:35:03;;;;;;;7.15;3.38;;;;;;;10.67;74.70;101353.19;5013131;28;20457;-80
2021/10/13 10:37:48;;;;;;;11.35;4.50;;;;;;;10.97;74.10;101345.59;5009414;28;20053;-84
2021/10/13 10:40:22;;;;;;;14.85;4.80;;;;;;;10.92;74.21;101340.53;5014352;28;20572;-86
2021/10/13 10:42:55;;;;;;;7.88;4.53;;;;;;;10.88;73.80;101345.09;5000685;28;20500;-83
2021/10/13 10:45:24;;;;;;;12.52;4.72;;;;;;;10.64;75.21;101356.84;4997293;28;20053;-81
2021/10/13 10:48:12;;;;;;;6.47;4.32;;;;;;;11.06;74.00;101346.00;5018097;28;20061;-84
2021/10/13 10:50:42;;;;;;;15.88;4.85;;;;;;;10.94;74.77;101349.22;5017855;28;20045;-84
2021/10/13 10:53:15;;;;;;;16.15;4.72;;;;;;;10.95;74.42;101344.81;5006538;28;20103;-85
2021/10/13 10:55:43;;;;;;;9.07;4.53;;;;;;;10.87;74.57;101347.81;5023421;28;20084;-84
2021/10/13 10:58:17;;;;;;;7.50;3.83;;;;;;;11.09;73.78;101356.38;5014163;28;20049;-81
2021/10/13 11:00:44;;;;;;;12.93;4.65;;;;;;;11.15;73.73;101357.84;5045883;28;20771;-81
2021/10/13 11:03:20;;;;;;;9.07;4.10;;;;;;;11.15;73.75;101349.94;5006408;28;20033;-85
2021/10/13 11:05:53;;;;;;;10.00;3.70;;;;;;;11.04;74.11;101352.28;5014399;28;20104;-82
2021/10/13 11:08:23;;;;;;;13.32;3.97;;;;;;;11.19;73.92;101355.94;5029690;28;20049;-82
2021/10/13 11:10:51;;;;;;;7.32;3.33;;;;;;;10.91;74.07;101359.91;5023016;28;20049;-83
2021/10/13 11:13:23;;;;;;;7.60;3.17;;;;;;;10.88;74.42;101360.06;5020287;28;20115;-87
2021/10/13 11:15:51;;;;;;;13.30;3.33;;;;;;;10.99;74.07;101356.94;4999875;28;20396;-82
2021/10/13 11:18:18;;;;;;;12.50;3.65;;;;;;;11.13;73.43;101363.22;5032370;28;20076;-88
2021/10/13 11:20:46;;;;;;;5.50;2.75;;;;;;;11.22;73.27;101358.44;4988979;28;20535;-81
2021/10/13 11:23:13;;;;;;;4.97;2.42;;;;;;;11.35;72.43;101359.50;5039651;28;20059;-82
2021/10/13 11:25:41;;;;;;;11.63;2.97;;;;;;;11.14;72.93;101370.19;4995821;28;20049;-81
2021/10/13 11:28:10;;;;;;;12.80;3.70;;;;;;;11.25;73.22;101360.88;5000501;28;20057;-87
2021/10/13 11:30:40;;;;;;;9.90;2.88;;;;;;;11.15;73.61;101363.13;5009733;28;20046;-80
2021/10/13 11:33:10;;;;;;;14.32;3.40;;;;;;;10.92;75.44;101363.41;4997263;28;20184;-87
2021/10/13 11:35:39;;;;;;;9.10;2.67;;;;;;;11.37;72.91;101360.28;5011333;28;20073;-83
2021/10/13 11:38:07;;;;;;;9.18;2.42;;;;;;;11.83;71.00;101365.84;5010023;28;20052;-83